createdAt,value
2018-07-17T00:00:26.494Z,22.71
2018-07-17T00:02:59.577Z,22.79
2018-07-17T00:05:31.042Z,22.82
2018-07-17T00:08:02.536Z,22.72
2018-07-17T00:10:34.156Z,22.67
2018-07-17T00:13:08.639Z,22.67
2018-07-17T00:15:41.549Z,22.67
2018-07-17T00:18:14.569Z,22.68
2018-07-17T00:20:48.260Z,22.56
2018-07-17T00:23:21.427Z,22.47
2018-07-17T00:25:53.721Z,22.49
2018-07-17T00:28:25.238Z,22.47
2018-07-17T00:30:59.103Z,22.43
2018-07-17T00:33:32.148Z,22.38
2018-07-17T00:36:05.247Z,22.34
2018-07-17T00:38:36.892Z,22.32
2018-07-17T00:41:10.142Z,22.35
2018-07-17T00:43:44.506Z,22.29
2018-07-17T00:46:14.417Z,22.26
2018-07-17T00:48:48.243Z,22.26
2018-07-17T00:51:19.655Z,22.27
2018-07-17T00:53:51.244Z,22.24
2018-07-17T00:56:25.780Z,22.32
2018-07-17T00:58:58.976Z,22.40
2018-07-17T01:01:46.551Z,22.15
2018-07-17T01:04:36.117Z,21.97
2018-07-17T01:07:24.872Z,22.02
2018-07-17T01:10:14.053Z,21.96
2018-07-17T01:12:44.482Z,22.18
2018-07-17T01:15:20.447Z,22.27
2018-07-17T01:17:53.343Z,22.31
2018-07-17T01:20:22.911Z,22.09
2018-07-17T01:22:58.634Z,22.12
2018-07-17T01:25:31.997Z,22.15
2018-07-17T01:28:04.969Z,22.14
2018-07-17T01:30:36.776Z,22.23
2018-07-17T01:33:09.722Z,22.14
2018-07-17T01:35:42.908Z,22.01
2018-07-17T01:38:14.303Z,22.24
2018-07-17T01:40:48.893Z,22.19
2018-07-17T01:43:20.321Z,22.31
2018-07-17T01:45:52.088Z,22.30
2018-07-17T01:48:23.743Z,22.31
2018-07-17T01:50:54.254Z,22.21
2018-07-17T01:53:28.992Z,22.16
2018-07-17T01:56:00.408Z,22.10
2018-07-17T01:58:32.442Z,22.03
2018-07-17T02:01:07.149Z,22.00
2018-07-17T02:03:40.023Z,21.99
2018-07-17T02:06:12.384Z,22.05
2018-07-17T02:08:45.679Z,22.01
2018-07-17T02:11:18.185Z,21.81
2018-07-17T02:13:49.818Z,21.80
2018-07-17T02:16:21.371Z,21.72
2018-07-17T02:18:54.569Z,21.63
2018-07-17T02:21:25.872Z,21.72
2018-07-17T02:24:00.626Z,21.73
2018-07-17T02:26:32.060Z,21.72
2018-07-17T02:29:04.980Z,21.56
2018-07-17T02:31:40.451Z,21.62
2018-07-17T02:34:13.365Z,21.40
2018-07-17T02:36:47.968Z,21.33
2018-07-17T02:39:21.426Z,21.27
2018-07-17T02:41:54.504Z,21.27
2018-07-17T02:44:29.111Z,21.23
2018-07-17T02:47:03.684Z,20.97
2018-07-17T02:49:35.884Z,21.04
2018-07-17T02:52:07.393Z,20.84
2018-07-17T02:54:40.314Z,20.90
2018-07-17T02:57:14.791Z,20.99
2018-07-17T02:59:46.388Z,21.04
2018-07-17T03:02:15.519Z,20.93
2018-07-17T03:04:48.423Z,20.94
2018-07-17T03:07:23.402Z,20.84
2018-07-17T03:09:57.854Z,20.94
2018-07-17T03:12:32.519Z,20.95
2018-07-17T03:15:05.720Z,20.95
2018-07-17T03:17:38.991Z,20.81
2018-07-17T03:20:11.701Z,20.79
2018-07-17T03:22:44.882Z,20.76
2018-07-17T03:25:16.170Z,20.51
2018-07-17T03:27:48.744Z,20.51
2018-07-17T03:30:22.675Z,20.60
2018-07-17T03:32:57.584Z,20.56
2018-07-17T03:35:29.466Z,20.63
2018-07-17T03:38:01.321Z,20.64
2018-07-17T03:40:34.307Z,20.53
2018-07-17T03:43:07.432Z,20.54
2018-07-17T03:45:40.619Z,20.56
2018-07-17T03:48:13.626Z,20.46
2018-07-17T03:50:46.688Z,20.50
2018-07-17T03:53:20.147Z,20.61
2018-07-17T03:55:53.459Z,20.72
2018-07-17T03:58:28.012Z,20.87
2018-07-17T04:01:02.692Z,21.05
2018-07-17T04:03:32.728Z,21.14
2018-07-17T04:06:07.520Z,21.29
2018-07-17T04:08:41.447Z,21.43
2018-07-17T04:11:13.038Z,21.21
2018-07-17T04:13:47.589Z,21.27
2018-07-17T04:16:20.720Z,21.48
2018-07-17T04:18:51.425Z,21.58
2018-07-17T04:21:24.320Z,21.55
2018-07-17T04:23:57.354Z,22.11
2018-07-17T04:26:30.281Z,22.58
2018-07-17T04:29:00.240Z,22.99
2018-07-17T04:31:33.560Z,22.90
2018-07-17T04:34:05.043Z,22.92
2018-07-17T04:36:38.482Z,22.87
2018-07-17T04:39:15.621Z,22.43
2018-07-17T04:41:48.737Z,22.18
2018-07-17T04:44:20.320Z,21.70
2018-07-17T04:46:55.259Z,22.01
2018-07-17T04:49:29.722Z,21.95
2018-07-17T04:52:02.703Z,21.62
2018-07-17T04:54:36.593Z,21.43
2018-07-17T04:57:09.958Z,21.39
2018-07-17T04:59:42.263Z,21.53
2018-07-17T05:02:15.361Z,21.84
2018-07-17T05:04:48.531Z,22.43
2018-07-17T05:07:23.208Z,22.82
2018-07-17T05:09:55.212Z,23.01
2018-07-17T05:12:28.291Z,23.02
2018-07-17T05:15:01.149Z,23.02
2018-07-17T05:17:32.620Z,23.47
2018-07-17T05:20:07.187Z,23.67
2018-07-17T05:22:40.130Z,23.54
2018-07-17T05:25:12.095Z,24.26
2018-07-17T05:27:45.092Z,24.71
2018-07-17T05:30:18.137Z,25.41
2018-07-17T05:32:51.143Z,25.08
2018-07-17T05:35:25.585Z,26.01
2018-07-17T05:37:57.187Z,26.39
2018-07-17T05:40:30.078Z,27.07
2018-07-17T05:43:00.786Z,25.84
2018-07-17T05:45:32.211Z,26.77
2018-07-17T05:48:04.138Z,26.61
2018-07-17T05:50:35.109Z,26.64
2018-07-17T05:53:06.602Z,26.80
2018-07-17T05:55:37.984Z,26.42
2018-07-17T05:58:12.597Z,26.56
2018-07-17T06:00:45.549Z,26.75
2018-07-17T06:03:18.659Z,26.26
2018-07-17T06:05:51.705Z,27.22
2018-07-17T06:08:26.152Z,27.18
2018-07-17T06:10:57.646Z,27.05
2018-07-17T06:13:30.544Z,27.44
2018-07-17T06:16:03.472Z,27.77
2018-07-17T06:18:37.959Z,27.73
2018-07-17T06:21:09.389Z,27.45
2018-07-17T06:23:43.801Z,28.46
2018-07-17T06:26:16.974Z,28.62
2018-07-17T06:28:51.283Z,27.74
2018-07-17T06:31:25.325Z,28.12
2018-07-17T06:33:56.802Z,29.09
2018-07-17T06:36:30.267Z,28.60
2018-07-17T06:39:00.206Z,28.72
2018-07-17T06:41:33.059Z,28.68
2018-07-17T06:44:04.734Z,29.58
2018-07-17T06:46:36.216Z,29.48
2018-07-17T06:49:09.067Z,29.03
2018-07-17T06:51:41.996Z,28.81
2018-07-17T06:54:13.409Z,29.53
2018-07-17T06:56:44.856Z,28.31
2018-07-17T06:59:16.258Z,29.45
2018-07-17T07:01:47.128Z,29.69
2018-07-17T07:04:18.604Z,29.98
2018-07-17T07:06:47.749Z,30.73
2018-07-17T07:09:22.255Z,30.83
2018-07-17T07:11:55.299Z,29.81
2018-07-17T07:14:29.699Z,30.15
2018-07-17T07:16:59.634Z,30.80
2018-07-17T07:19:29.548Z,29.55
2018-07-17T07:21:59.483Z,30.24
2018-07-17T07:24:31.143Z,30.75
2018-07-17T07:27:04.127Z,30.82
2018-07-17T07:29:37.511Z,29.51
2018-07-17T07:32:10.492Z,30.85
2018-07-17T07:34:43.329Z,30.45
2018-07-17T07:37:14.923Z,30.41
2018-07-17T07:39:47.759Z,30.79
2018-07-17T07:42:19.120Z,30.92
2018-07-17T07:44:52.070Z,31.09
2018-07-17T07:47:26.410Z,31.38
2018-07-17T07:49:59.258Z,31.53
2018-07-17T07:52:33.293Z,31.94
2018-07-17T07:55:07.587Z,30.61
2018-07-17T07:57:41.879Z,32.04
2018-07-17T08:00:14.768Z,31.31
2018-07-17T08:02:49.025Z,31.32
2018-07-17T08:05:21.464Z,32.13
2018-07-17T08:07:54.874Z,32.46
2018-07-17T08:10:29.793Z,32.77
2018-07-17T08:13:03.451Z,31.55
2018-07-17T08:15:34.435Z,31.85
2018-07-17T08:18:10.335Z,31.83
2018-07-17T08:20:42.480Z,31.77
2018-07-17T08:23:17.868Z,31.57
2018-07-17T08:25:51.538Z,32.36
2018-07-17T08:28:25.262Z,31.61
2018-07-17T08:31:01.195Z,32.02
2018-07-17T08:33:34.810Z,31.70
2018-07-17T08:36:08.052Z,31.50
2018-07-17T08:38:40.583Z,31.45
2018-07-17T08:41:12.000Z,31.33
2018-07-17T08:43:45.060Z,31.43
2018-07-17T08:46:17.144Z,31.53
2018-07-17T08:48:48.903Z,31.52
2018-07-17T08:51:23.292Z,31.38
2018-07-17T08:53:58.387Z,32.09
2018-07-17T08:56:33.682Z,31.38
2018-07-17T08:59:08.857Z,31.66
2018-07-17T09:01:43.147Z,32.29
2018-07-17T09:04:15.099Z,32.45
2018-07-17T09:06:46.332Z,32.00
2018-07-17T09:09:20.836Z,32.00
2018-07-17T09:11:53.807Z,31.59
2018-07-17T09:14:28.230Z,31.54
2018-07-17T09:16:58.832Z,31.20
2018-07-17T09:19:34.173Z,32.07
2018-07-17T09:22:07.050Z,31.07
2018-07-17T09:24:40.687Z,31.35
2018-07-17T09:27:15.451Z,31.80
2018-07-17T09:29:50.586Z,32.03
2018-07-17T09:32:25.892Z,31.36
2018-07-17T09:34:57.220Z,31.33
2018-07-17T09:37:30.587Z,31.88
2018-07-17T09:40:01.554Z,31.90
2018-07-17T09:42:33.514Z,31.22
2018-07-17T09:45:08.166Z,31.66
2018-07-17T09:47:39.083Z,31.57
2018-07-17T09:50:14.923Z,31.59
2018-07-17T09:52:47.260Z,31.03
2018-07-17T09:55:21.125Z,31.40
2018-07-17T09:57:56.848Z,31.92
2018-07-17T10:00:54.707Z,31.64
2018-07-17T10:03:29.196Z,31.73
2018-07-17T10:06:00.664Z,30.57
2018-07-17T10:08:35.032Z,30.55
2018-07-17T10:11:08.095Z,29.14
2018-07-17T10:13:41.255Z,30.46
2018-07-17T10:16:14.340Z,30.11
2018-07-17T10:18:46.614Z,31.08
2018-07-17T10:21:16.383Z,31.32
2018-07-17T10:23:46.929Z,31.95
2018-07-17T10:26:18.425Z,31.02
2018-07-17T10:28:50.845Z,32.01
2018-07-17T10:31:20.732Z,31.10
2018-07-17T10:33:52.216Z,32.33
2018-07-17T10:36:23.716Z,32.34
2018-07-17T10:38:56.326Z,32.10
2018-07-17T10:41:29.629Z,31.54
2018-07-17T10:44:02.591Z,32.12
2018-07-17T10:46:34.336Z,32.63
2018-07-17T10:49:06.193Z,32.69
2018-07-17T10:51:37.131Z,33.22
2018-07-17T10:54:07.900Z,32.57
2018-07-17T10:56:43.530Z,32.92
2018-07-17T10:59:18.812Z,32.58
2018-07-17T11:01:49.442Z,32.77
2018-07-17T11:04:22.237Z,32.10
2018-07-17T11:06:55.611Z,31.40
2018-07-17T11:09:27.250Z,32.20
2018-07-17T11:12:00.201Z,32.14
2018-07-17T11:14:31.657Z,31.63
2018-07-17T11:17:03.085Z,32.72
2018-07-17T11:19:34.579Z,31.88
2018-07-17T11:22:06.039Z,32.35
2018-07-17T11:24:39.300Z,32.66
2018-07-17T11:27:10.851Z,31.13
2018-07-17T11:29:40.686Z,30.37
2018-07-17T11:32:13.573Z,31.42
2018-07-17T11:34:45.008Z,31.18
2018-07-17T11:37:19.413Z,31.48
2018-07-17T11:39:51.357Z,31.00
2018-07-17T11:42:24.278Z,31.73
2018-07-17T11:44:57.675Z,31.45
2018-07-17T11:47:30.630Z,31.75
2018-07-17T11:50:05.324Z,31.04
2018-07-17T11:52:38.322Z,31.76
2018-07-17T11:55:11.309Z,30.98
2018-07-17T11:57:44.110Z,31.68
2018-07-17T12:00:16.197Z,32.31
2018-07-17T12:02:48.250Z,30.48
2018-07-17T12:05:19.623Z,31.00
2018-07-17T12:07:53.953Z,30.29
2018-07-17T12:10:25.167Z,30.50
2018-07-17T12:12:58.581Z,30.47
2018-07-17T12:15:30.465Z,30.64
2018-07-17T12:18:01.571Z,30.83
2018-07-17T12:20:34.737Z,31.14
2018-07-17T12:23:08.936Z,31.86
2018-07-17T12:25:41.855Z,30.61
2018-07-17T12:28:13.324Z,30.03
2018-07-17T12:30:47.727Z,30.57
2018-07-17T12:33:17.652Z,30.29
2018-07-17T12:35:49.048Z,30.94
2018-07-17T12:38:20.467Z,31.32
2018-07-17T12:40:53.370Z,30.99
2018-07-17T12:43:24.842Z,31.04
2018-07-17T12:45:56.262Z,30.23
2018-07-17T12:48:30.759Z,29.60
2018-07-17T12:51:03.952Z,30.38
2018-07-17T12:53:37.063Z,30.72
2018-07-17T12:56:09.023Z,31.33
2018-07-17T12:58:43.365Z,30.29
2018-07-17T13:01:16.338Z,30.78
2018-07-17T13:03:49.134Z,31.13
2018-07-17T13:06:21.971Z,30.27
2018-07-17T13:08:54.841Z,30.34
2018-07-17T13:11:28.754Z,30.37
2018-07-17T13:14:00.191Z,29.73
2018-07-17T13:16:32.341Z,29.70
2018-07-17T13:19:02.293Z,30.14
2018-07-17T13:21:35.276Z,30.68
2018-07-17T13:24:06.796Z,30.11
2018-07-17T13:26:39.856Z,30.24
2018-07-17T13:29:12.858Z,30.35
2018-07-17T13:31:42.840Z,30.16
2018-07-17T13:34:14.298Z,30.60
2018-07-17T13:36:44.213Z,30.76
2018-07-17T13:39:15.975Z,30.58
2018-07-17T13:41:48.931Z,30.61
2018-07-17T13:44:20.370Z,30.54
2018-07-17T13:46:52.812Z,30.19
2018-07-17T13:49:25.257Z,30.35
2018-07-17T13:51:57.167Z,29.61
2018-07-17T13:54:28.647Z,29.38
2018-07-17T13:57:00.434Z,30.20
2018-07-17T13:59:32.653Z,30.05
2018-07-17T14:02:02.512Z,29.69
2018-07-17T14:04:32.545Z,29.87
2018-07-17T14:07:04.072Z,29.87
2018-07-17T14:09:36.875Z,29.74
2018-07-17T14:12:08.557Z,29.57
2018-07-17T14:14:41.316Z,29.73
2018-07-17T14:17:13.568Z,29.55
2018-07-17T14:19:46.492Z,29.67
2018-07-17T14:22:17.878Z,29.82
2018-07-17T14:24:50.008Z,29.57
2018-07-17T14:27:23.009Z,29.55
2018-07-17T14:29:57.575Z,29.20
2018-07-17T14:32:29.007Z,29.27
2018-07-17T14:34:58.946Z,29.09
2018-07-17T14:37:30.376Z,29.05
2018-07-17T14:40:01.796Z,29.33
2018-07-17T14:42:33.719Z,28.78
2018-07-17T14:45:06.814Z,28.33
2018-07-17T14:47:37.557Z,28.63
2018-07-17T14:50:12.794Z,28.55
2018-07-17T14:52:47.236Z,28.08
2018-07-17T14:55:19.338Z,28.40
2018-07-17T14:57:52.399Z,28.19
2018-07-17T15:00:26.828Z,28.03
2018-07-17T15:02:58.502Z,28.05
2018-07-17T15:05:30.699Z,27.73
2018-07-17T15:08:02.156Z,27.38
2018-07-17T15:10:33.599Z,27.32
2018-07-17T15:13:04.990Z,27.82
2018-07-17T15:15:36.548Z,27.65
2018-07-17T15:18:06.405Z,27.30
2018-07-17T15:20:37.939Z,27.30
2018-07-17T15:23:10.866Z,27.14
2018-07-17T15:25:43.787Z,27.19
2018-07-17T15:28:18.352Z,26.92
2018-07-17T15:30:51.292Z,26.78
2018-07-17T15:33:22.824Z,26.73
2018-07-17T15:35:56.064Z,26.81
2018-07-17T15:38:29.131Z,27.28
2018-07-17T15:41:02.047Z,26.82
2018-07-17T15:43:35.241Z,26.57
2018-07-17T15:46:06.770Z,26.47
2018-07-17T15:48:39.736Z,26.48
2018-07-17T15:51:12.767Z,26.58
2018-07-17T15:53:45.623Z,26.11
2018-07-17T15:56:17.029Z,26.22
2018-07-17T15:58:48.523Z,26.19
2018-07-17T16:01:21.965Z,26.09
2018-07-17T16:03:53.429Z,25.97
2018-07-17T16:06:26.638Z,26.02
2018-07-17T16:08:58.097Z,26.38
2018-07-17T16:11:31.012Z,26.30
2018-07-17T16:14:03.182Z,26.38
2018-07-17T16:16:37.623Z,26.30
2018-07-17T16:19:10.876Z,25.95
2018-07-17T16:21:42.763Z,26.21
2018-07-17T16:24:15.830Z,25.90
2018-07-17T16:26:50.423Z,26.14
2018-07-17T16:29:23.377Z,25.87
2018-07-17T16:31:56.242Z,26.02
2018-07-17T16:34:30.759Z,25.88
2018-07-17T16:37:00.848Z,25.84
2018-07-17T16:39:33.962Z,25.81
2018-07-17T16:42:06.972Z,25.47
2018-07-17T16:44:39.824Z,25.28
2018-07-17T16:47:11.517Z,25.03
2018-07-17T16:49:44.523Z,25.33
2018-07-17T16:52:17.427Z,25.39
2018-07-17T16:54:48.920Z,24.83
2018-07-17T16:57:20.470Z,24.91
2018-07-17T16:59:54.065Z,24.69
2018-07-17T17:02:25.482Z,24.49
2018-07-17T17:04:59.919Z,24.73
2018-07-17T17:07:29.078Z,24.50
2018-07-17T17:09:59.077Z,24.54
2018-07-17T17:12:31.982Z,24.39
2018-07-17T17:15:04.903Z,24.42
2018-07-17T17:17:37.940Z,23.91
2018-07-17T17:20:09.340Z,24.11
2018-07-17T17:22:42.387Z,23.95
2018-07-17T17:25:14.310Z,23.90
2018-07-17T17:27:47.415Z,23.77
2018-07-17T17:30:19.570Z,23.46
2018-07-17T17:32:51.031Z,23.58
2018-07-17T17:35:25.398Z,23.71
2018-07-17T17:37:59.991Z,23.42
2018-07-17T17:40:31.669Z,23.26
2018-07-17T17:43:05.251Z,23.24
2018-07-17T17:45:35.362Z,23.16
2018-07-17T17:48:08.272Z,22.96
2018-07-17T17:50:41.139Z,23.33
2018-07-17T17:53:14.025Z,23.45
2018-07-17T17:55:46.224Z,23.23
2018-07-17T17:58:17.759Z,23.38
2018-07-17T18:00:50.617Z,23.06
2018-07-17T18:03:22.129Z,22.77
2018-07-17T18:05:55.154Z,22.95
2018-07-17T18:08:28.231Z,22.80
2018-07-17T18:11:02.620Z,22.77
2018-07-17T18:13:35.584Z,22.98
2018-07-17T18:16:08.576Z,22.93
2018-07-17T18:18:42.637Z,22.66
2018-07-17T18:21:15.616Z,22.56
2018-07-17T18:23:48.893Z,22.59
2018-07-17T18:26:20.352Z,22.52
2018-07-17T18:28:54.767Z,22.46
2018-07-17T18:31:25.199Z,22.67
2018-07-17T18:33:58.081Z,22.58
2018-07-17T18:36:29.555Z,22.54
2018-07-17T18:39:01.159Z,22.52
2018-07-17T18:41:34.114Z,22.39
2018-07-17T18:44:05.586Z,22.24
2018-07-17T18:46:37.058Z,22.18
2018-07-17T18:49:10.047Z,22.32
2018-07-17T18:51:44.120Z,22.19
2018-07-17T18:54:17.224Z,22.15
2018-07-17T18:56:50.310Z,22.02
2018-07-17T18:59:21.677Z,22.03
2018-07-17T19:01:54.598Z,21.88
2018-07-17T19:04:27.844Z,21.97
2018-07-17T19:07:00.917Z,21.96
2018-07-17T19:09:35.625Z,21.89
2018-07-17T19:12:08.647Z,21.86
2018-07-17T19:14:42.175Z,21.74
2018-07-17T19:17:14.207Z,21.62
2018-07-17T19:19:45.720Z,21.52
2018-07-17T19:22:21.290Z,21.50
2018-07-17T19:24:52.945Z,21.52
2018-07-17T19:27:27.660Z,21.57
2018-07-17T19:30:00.252Z,21.43
2018-07-17T19:32:30.160Z,21.08
2018-07-17T19:35:03.500Z,21.15
2018-07-17T19:37:35.609Z,21.19
2018-07-17T19:40:09.526Z,21.08
2018-07-17T19:42:41.854Z,20.91
2018-07-17T19:45:14.831Z,20.80
2018-07-17T19:47:47.051Z,20.84
2018-07-17T19:50:20.861Z,20.74
2018-07-17T19:52:52.329Z,20.59
2018-07-17T19:55:23.839Z,20.53
2018-07-17T19:57:56.026Z,20.48
2018-07-17T20:00:29.262Z,20.36
2018-07-17T20:03:00.296Z,20.40
2018-07-17T20:05:33.394Z,20.33
2018-07-17T20:08:05.427Z,20.22
2018-07-17T20:10:37.060Z,20.12
2018-07-17T20:13:10.474Z,20.21
2018-07-17T20:15:39.622Z,19.97
2018-07-17T20:18:14.220Z,19.97
2018-07-17T20:20:46.617Z,20.01
2018-07-17T20:23:19.703Z,19.90
2018-07-17T20:25:51.300Z,19.90
2018-07-17T20:28:25.803Z,19.86
2018-07-17T20:31:00.276Z,19.76
2018-07-17T20:33:32.667Z,19.82
2018-07-17T20:36:04.116Z,19.78
2018-07-17T20:38:37.106Z,19.68
2018-07-17T20:41:10.419Z,19.62
2018-07-17T20:43:43.252Z,19.72
2018-07-17T20:46:15.250Z,19.64
2018-07-17T20:48:48.757Z,19.68
2018-07-17T20:51:20.193Z,19.63
2018-07-17T20:53:52.947Z,19.55
2018-07-17T20:56:27.772Z,19.61
2018-07-17T20:59:00.912Z,19.58
2018-07-17T21:01:32.582Z,19.50
2018-07-17T21:04:06.189Z,19.40
2018-07-17T21:06:38.396Z,19.41
2018-07-17T21:09:13.807Z,19.43
2018-07-17T21:11:47.669Z,19.26
2018-07-17T21:14:18.830Z,19.35
2018-07-17T21:16:50.400Z,19.42
2018-07-17T21:19:21.965Z,19.37
2018-07-17T21:21:53.750Z,19.34
2018-07-17T21:24:25.376Z,19.31
2018-07-17T21:26:57.080Z,19.24
2018-07-17T21:29:31.183Z,19.05
2018-07-17T21:32:04.146Z,19.14
2018-07-17T21:34:38.657Z,19.18
2018-07-17T21:37:11.711Z,19.15
2018-07-17T21:39:46.195Z,19.09
2018-07-17T21:42:18.324Z,19.03
2018-07-17T21:44:53.642Z,18.99
2018-07-17T21:47:26.957Z,19.07
2018-07-17T21:49:58.484Z,19.05
2018-07-17T21:52:32.901Z,18.98
2018-07-17T21:55:07.354Z,18.97
2018-07-17T21:57:38.860Z,18.97
2018-07-17T22:00:13.119Z,18.80
2018-07-17T22:02:46.206Z,18.86
2018-07-17T22:05:20.756Z,18.84
2018-07-17T22:07:53.765Z,18.81
2018-07-17T22:10:25.786Z,18.72
2018-07-17T22:12:59.142Z,18.65
2018-07-17T22:15:33.139Z,18.67
2018-07-17T22:18:06.325Z,18.66
2018-07-17T22:20:38.736Z,18.40
2018-07-17T22:23:10.321Z,18.39
2018-07-17T22:25:44.077Z,18.24
2018-07-17T22:28:18.729Z,18.24
2018-07-17T22:30:53.472Z,18.16
2018-07-17T22:33:26.481Z,17.98
2018-07-17T22:35:57.920Z,18.06
2018-07-17T22:38:30.476Z,18.04
2018-07-17T22:41:03.393Z,18.00
2018-07-17T22:43:37.925Z,17.91
2018-07-17T22:46:12.653Z,17.86
2018-07-17T22:48:45.850Z,17.84
2018-07-17T22:51:17.573Z,17.79
2018-07-17T22:53:50.532Z,17.80
2018-07-17T22:56:21.009Z,17.76
2018-07-17T22:58:54.262Z,17.73
2018-07-17T23:01:27.253Z,17.67
2018-07-17T23:03:57.158Z,16.96
2018-07-17T23:06:27.069Z,17.09
2018-07-17T23:08:57.103Z,17.16
2018-07-17T23:11:27.133Z,17.11
2018-07-17T23:14:01.855Z,17.20
2018-07-17T23:16:36.323Z,17.16
2018-07-17T23:19:11.013Z,17.08
2018-07-17T23:21:43.180Z,17.05
2018-07-17T23:24:16.769Z,16.82
2018-07-17T23:26:49.992Z,16.81
2018-07-17T23:29:21.483Z,16.82
2018-07-17T23:31:54.439Z,16.78
2018-07-17T23:34:29.309Z,16.81
2018-07-17T23:37:02.962Z,16.80
2018-07-17T23:39:34.732Z,16.83
2018-07-17T23:42:07.829Z,16.71
2018-07-17T23:44:39.304Z,16.76
2018-07-17T23:47:13.414Z,16.75
2018-07-17T23:49:46.941Z,16.77
2018-07-17T23:52:18.522Z,16.82
2018-07-17T23:54:50.258Z,16.38
2018-07-17T23:57:23.373Z,16.57
2018-07-17T23:59:56.459Z,16.47
